createdAt,value
2017-07-24T00:00:32.541Z,17.37
2017-07-24T00:01:29.834Z,17.36
2017-07-24T00:02:27.101Z,17.36
2017-07-24T00:03:24.405Z,17.35
2017-07-24T00:04:21.632Z,17.33
2017-07-24T00:05:18.916Z,17.34
2017-07-24T00:06:16.158Z,17.34
2017-07-24T00:07:13.444Z,17.32
2017-07-24T00:08:10.695Z,17.33
2017-07-24T00:09:07.978Z,17.31
2017-07-24T00:10:05.230Z,17.30
2017-07-24T00:11:02.493Z,17.30
2017-07-24T00:11:59.759Z,17.30
2017-07-24T00:12:57.117Z,17.28
2017-07-24T00:13:54.354Z,17.29
2017-07-24T00:14:51.768Z,17.28
2017-07-24T00:15:49.005Z,17.27
2017-07-24T00:16:46.301Z,17.27
2017-07-24T00:17:43.565Z,17.27
2017-07-24T00:18:40.908Z,17.27
2017-07-24T00:19:38.157Z,17.25
2017-07-24T00:20:35.586Z,17.25
2017-07-24T00:21:32.879Z,17.24
2017-07-24T00:22:30.142Z,17.25
2017-07-24T00:23:27.441Z,17.23
2017-07-24T00:24:24.700Z,17.23
2017-07-24T00:25:21.941Z,17.24
2017-07-24T00:26:19.231Z,17.22
2017-07-24T00:27:16.492Z,17.21
2017-07-24T00:28:13.854Z,17.22
2017-07-24T00:29:11.096Z,17.20
2017-07-24T00:30:08.373Z,17.18
2017-07-24T00:31:05.626Z,17.20
2017-07-24T00:32:02.913Z,17.19
2017-07-24T00:33:00.159Z,17.17
2017-07-24T00:33:57.449Z,17.17
2017-07-24T00:34:54.744Z,17.17
2017-07-24T00:35:52.012Z,17.15
2017-07-24T00:36:49.273Z,17.15
2017-07-24T00:37:46.557Z,17.15
2017-07-24T00:38:43.825Z,17.15
2017-07-24T00:39:41.108Z,17.14
2017-07-24T00:40:38.344Z,17.13
2017-07-24T00:41:35.658Z,17.14
2017-07-24T00:42:32.980Z,17.12
2017-07-24T00:43:30.324Z,17.11
2017-07-24T00:44:27.625Z,17.12
2017-07-24T00:45:24.946Z,17.11
2017-07-24T00:46:22.237Z,17.11
2017-07-24T00:47:19.547Z,17.10
2017-07-24T00:48:16.854Z,17.10
2017-07-24T00:49:14.205Z,17.09
2017-07-24T00:50:11.465Z,17.08
2017-07-24T00:51:08.894Z,17.09
2017-07-24T00:52:06.162Z,17.09
2017-07-24T00:53:03.500Z,17.06
2017-07-24T00:54:00.786Z,17.06
2017-07-24T00:54:58.148Z,17.07
2017-07-24T00:55:55.440Z,17.07
2017-07-24T00:56:52.782Z,17.06
2017-07-24T00:57:50.187Z,17.06
2017-07-24T00:58:47.445Z,17.05
2017-07-24T00:59:44.745Z,17.03
2017-07-24T01:00:42.052Z,17.04
2017-07-24T01:01:39.377Z,17.04
2017-07-24T01:02:36.730Z,17.03
2017-07-24T01:03:34.022Z,17.04
2017-07-24T01:04:31.450Z,17.04
2017-07-24T01:05:28.756Z,17.03
2017-07-24T01:06:26.301Z,17.03
2017-07-24T01:07:23.586Z,17.02
2017-07-24T01:08:20.905Z,17.02
2017-07-24T01:09:18.211Z,17.01
2017-07-24T01:10:15.575Z,17.01
2017-07-24T01:11:12.841Z,17.01
2017-07-24T01:12:10.259Z,16.99
2017-07-24T01:13:07.569Z,17.00
2017-07-24T01:14:04.984Z,16.99
2017-07-24T01:15:02.289Z,16.98
2017-07-24T01:15:59.640Z,16.98
2017-07-24T01:16:56.957Z,16.97
2017-07-24T01:17:54.465Z,16.96
2017-07-24T01:18:51.756Z,16.96
2017-07-24T01:19:49.041Z,16.96
2017-07-24T01:20:46.279Z,16.95
2017-07-24T01:21:43.590Z,16.94
2017-07-24T01:22:40.858Z,16.96
2017-07-24T01:23:38.194Z,16.92
2017-07-24T01:24:35.484Z,16.92
2017-07-24T01:25:32.833Z,16.91
2017-07-24T01:26:30.116Z,16.92
2017-07-24T01:27:27.394Z,16.90
2017-07-24T01:28:24.758Z,16.91
2017-07-24T01:29:22.207Z,16.90
2017-07-24T01:30:19.503Z,16.88
2017-07-24T01:31:16.875Z,16.89
2017-07-24T01:32:14.205Z,16.88
2017-07-24T01:33:11.554Z,16.87
2017-07-24T01:34:08.840Z,16.86
2017-07-24T01:35:06.164Z,16.86
2017-07-24T01:36:03.417Z,16.85
2017-07-24T01:37:00.722Z,16.85
2017-07-24T01:37:58.118Z,16.85
2017-07-24T01:38:55.484Z,16.84
2017-07-24T01:39:52.792Z,16.84
2017-07-24T01:40:50.103Z,16.83
2017-07-24T01:41:47.468Z,16.82
2017-07-24T01:42:44.736Z,16.80
2017-07-24T01:43:42.013Z,16.79
2017-07-24T01:44:39.370Z,16.80
2017-07-24T01:45:36.641Z,16.79
2017-07-24T01:46:33.929Z,16.78
2017-07-24T01:47:31.206Z,16.77
2017-07-24T01:48:28.466Z,16.78
2017-07-24T01:49:25.741Z,16.76
2017-07-24T01:50:23.049Z,16.75
2017-07-24T01:51:20.316Z,16.74
2017-07-24T01:52:17.608Z,16.73
2017-07-24T01:53:14.858Z,16.73
2017-07-24T01:54:12.204Z,16.73
2017-07-24T01:55:09.468Z,16.72
2017-07-24T01:56:06.765Z,16.71
2017-07-24T01:57:04.027Z,16.70
2017-07-24T01:58:01.325Z,16.68
2017-07-24T01:58:58.616Z,16.68
2017-07-24T01:59:55.925Z,16.67
2017-07-24T02:00:53.214Z,16.67
2017-07-24T02:01:50.508Z,16.66
2017-07-24T02:02:47.752Z,16.65
2017-07-24T02:03:45.033Z,16.63
2017-07-24T02:04:42.335Z,16.62
2017-07-24T02:05:39.601Z,16.63
2017-07-24T02:06:36.888Z,16.61
2017-07-24T02:07:34.165Z,16.60
2017-07-24T02:08:31.453Z,16.60
2017-07-24T02:09:28.779Z,16.60
2017-07-24T02:10:26.051Z,16.59
2017-07-24T02:11:23.329Z,16.58
2017-07-24T02:12:20.607Z,16.56
2017-07-24T02:13:17.989Z,16.56
2017-07-24T02:14:15.290Z,16.55
2017-07-24T02:15:12.617Z,16.56
2017-07-24T02:16:09.878Z,16.55
2017-07-24T02:17:07.162Z,16.55
2017-07-24T02:18:04.429Z,16.53
2017-07-24T02:19:01.718Z,16.52
2017-07-24T02:19:59.027Z,16.53
2017-07-24T02:20:56.304Z,16.51
2017-07-24T02:21:53.565Z,16.51
2017-07-24T02:22:50.844Z,16.51
2017-07-24T02:23:48.092Z,16.50
2017-07-24T02:24:45.406Z,16.50
2017-07-24T02:25:42.664Z,16.48
2017-07-24T02:26:39.947Z,16.49
2017-07-24T02:27:37.205Z,16.48
2017-07-24T02:28:34.492Z,16.47
2017-07-24T02:29:31.760Z,16.46
2017-07-24T02:30:29.070Z,16.46
2017-07-24T02:31:26.317Z,16.45
2017-07-24T02:32:23.601Z,16.44
2017-07-24T02:33:20.864Z,16.42
2017-07-24T02:34:18.168Z,16.42
2017-07-24T02:35:15.813Z,16.41
2017-07-24T02:36:13.097Z,16.41
2017-07-24T02:37:10.369Z,16.40
2017-07-24T02:38:07.739Z,16.39
2017-07-24T02:39:05.001Z,16.39
2017-07-24T02:40:02.307Z,16.38
2017-07-24T02:40:59.566Z,16.36
2017-07-24T02:41:56.972Z,16.37
2017-07-24T02:42:54.257Z,16.36
2017-07-24T02:43:51.602Z,16.35
2017-07-24T02:44:48.865Z,16.35
2017-07-24T02:45:46.172Z,16.33
2017-07-24T02:46:43.435Z,16.34
2017-07-24T02:47:40.736Z,16.33
2017-07-24T02:48:37.989Z,16.33
2017-07-24T02:49:35.296Z,16.33
2017-07-24T02:50:32.619Z,16.31
2017-07-24T02:51:29.901Z,16.32
2017-07-24T02:52:27.165Z,16.31
2017-07-24T02:53:24.454Z,16.29
2017-07-24T02:54:21.706Z,16.29
2017-07-24T02:55:19.065Z,16.28
2017-07-24T02:56:16.317Z,16.28
2017-07-24T02:57:13.658Z,16.28
2017-07-24T02:58:10.964Z,16.27
2017-07-24T02:59:08.249Z,16.26
2017-07-24T03:00:05.538Z,16.27
2017-07-24T03:01:02.842Z,16.26
2017-07-24T03:02:00.123Z,16.24
2017-07-24T03:02:57.423Z,16.23
2017-07-24T03:03:54.672Z,16.24
2017-07-24T03:04:52.059Z,16.23
2017-07-24T03:05:49.337Z,16.21
2017-07-24T03:06:46.649Z,16.21
2017-07-24T03:07:43.908Z,16.19
2017-07-24T03:08:41.190Z,16.20
2017-07-24T03:09:38.453Z,16.19
2017-07-24T03:10:36.160Z,16.19
2017-07-24T03:11:33.426Z,16.17
2017-07-24T03:12:30.733Z,16.17
2017-07-24T03:13:27.993Z,16.18
2017-07-24T03:14:25.296Z,16.17
2017-07-24T03:15:22.546Z,16.16
2017-07-24T03:16:19.971Z,16.16
2017-07-24T03:17:17.281Z,16.16
2017-07-24T03:18:14.581Z,16.14
2017-07-24T03:19:11.836Z,16.14
2017-07-24T03:20:09.120Z,16.13
2017-07-24T03:21:06.372Z,16.13
2017-07-24T03:22:03.681Z,16.12
2017-07-24T03:23:00.931Z,16.11
2017-07-24T03:23:58.559Z,16.12
2017-07-24T03:24:55.830Z,16.10
2017-07-24T03:25:53.500Z,16.10
2017-07-24T03:26:50.778Z,16.10
2017-07-24T03:27:48.071Z,16.10
2017-07-24T03:28:45.316Z,16.08
2017-07-24T03:29:42.610Z,16.08
2017-07-24T03:30:39.856Z,16.08
2017-07-24T03:31:37.145Z,16.07
2017-07-24T03:32:34.473Z,16.08
2017-07-24T03:33:31.749Z,16.07
2017-07-24T03:34:29.012Z,16.04
2017-07-24T03:35:26.313Z,16.05
2017-07-24T03:36:23.581Z,16.03
2017-07-24T03:37:20.901Z,16.04
2017-07-24T03:38:18.142Z,16.02
2017-07-24T03:39:15.448Z,16.01
2017-07-24T03:40:12.749Z,16.01
2017-07-24T03:41:10.029Z,16.01
2017-07-24T03:42:07.325Z,16.00
2017-07-24T03:43:04.721Z,16.00
2017-07-24T03:44:01.960Z,15.98
2017-07-24T03:44:59.249Z,15.99
2017-07-24T03:45:56.528Z,15.99
2017-07-24T03:46:53.805Z,15.98
2017-07-24T03:47:51.113Z,15.97
2017-07-24T03:48:48.537Z,15.97
2017-07-24T03:49:45.836Z,15.96
2017-07-24T03:50:43.124Z,15.96
2017-07-24T03:51:40.384Z,15.95
2017-07-24T03:52:37.703Z,15.95
2017-07-24T03:53:34.960Z,15.94
2017-07-24T03:54:32.232Z,15.94
2017-07-24T03:55:29.533Z,15.94
2017-07-24T03:56:26.837Z,15.93
2017-07-24T03:57:24.084Z,15.94
2017-07-24T03:58:21.456Z,15.93
2017-07-24T03:59:18.731Z,15.91
2017-07-24T04:00:16.041Z,15.92
2017-07-24T04:01:13.349Z,15.91
2017-07-24T04:02:10.632Z,15.90
2017-07-24T04:03:07.909Z,15.90
2017-07-24T04:04:05.213Z,15.89
2017-07-24T04:05:02.555Z,15.89
2017-07-24T04:05:59.898Z,15.87
2017-07-24T04:06:57.165Z,15.89
2017-07-24T04:07:54.492Z,15.88
2017-07-24T04:08:51.808Z,15.88
2017-07-24T04:09:49.125Z,15.87
2017-07-24T04:10:46.472Z,15.87
2017-07-24T04:11:43.737Z,15.87
2017-07-24T04:12:41.012Z,15.87
2017-07-24T04:13:38.313Z,15.86
2017-07-24T04:14:35.555Z,15.86
2017-07-24T04:15:32.989Z,15.83
2017-07-24T04:16:30.290Z,15.84
2017-07-24T04:17:27.574Z,15.82
2017-07-24T04:18:24.829Z,15.82
2017-07-24T04:19:22.101Z,15.82
2017-07-24T04:20:19.364Z,15.82
2017-07-24T04:21:16.658Z,15.83
2017-07-24T04:22:13.941Z,15.82
2017-07-24T04:23:11.227Z,15.81
2017-07-24T04:24:08.509Z,15.80
2017-07-24T04:25:05.818Z,15.80
2017-07-24T04:26:03.124Z,15.80
2017-07-24T04:27:00.543Z,15.81
2017-07-24T04:27:57.816Z,15.80
2017-07-24T04:28:55.101Z,15.79
2017-07-24T04:29:52.334Z,15.79
2017-07-24T04:30:49.631Z,15.79
2017-07-24T04:31:46.900Z,15.79
2017-07-24T04:32:44.181Z,15.77
2017-07-24T04:33:41.456Z,15.77
2017-07-24T04:34:38.778Z,15.77
2017-07-24T04:35:36.044Z,15.77
2017-07-24T04:36:33.376Z,15.76
2017-07-24T04:37:30.654Z,15.76
2017-07-24T04:38:27.988Z,15.75
2017-07-24T04:39:25.258Z,15.75
2017-07-24T04:40:22.525Z,15.73
2017-07-24T04:41:19.804Z,15.73
2017-07-24T04:42:17.122Z,15.73
2017-07-24T04:43:14.369Z,15.72
2017-07-24T04:44:11.708Z,15.73
2017-07-24T04:45:09.017Z,15.72
2017-07-24T04:46:06.329Z,15.71
2017-07-24T04:47:03.606Z,15.72
2017-07-24T04:48:00.910Z,15.70
2017-07-24T04:48:58.280Z,15.71
2017-07-24T04:49:55.601Z,15.70
2017-07-24T04:50:52.893Z,15.70
2017-07-24T04:51:50.188Z,15.69
2017-07-24T04:52:47.523Z,15.68
2017-07-24T04:53:44.797Z,15.68
2017-07-24T04:54:42.081Z,15.67
2017-07-24T04:55:39.363Z,15.66
2017-07-24T04:56:36.655Z,15.66
2017-07-24T04:57:33.938Z,15.66
2017-07-24T04:58:31.268Z,15.67
2017-07-24T04:59:28.575Z,15.65
2017-07-24T05:00:25.859Z,15.65
2017-07-24T05:01:23.276Z,15.64
2017-07-24T05:02:20.550Z,15.64
2017-07-24T05:03:17.847Z,15.63
2017-07-24T05:04:15.112Z,15.63
2017-07-24T05:05:12.420Z,15.62
2017-07-24T05:06:09.677Z,15.62
2017-07-24T05:07:06.953Z,15.61
2017-07-24T05:08:04.233Z,15.60
2017-07-24T05:09:01.532Z,15.60
2017-07-24T05:09:58.857Z,15.60
2017-07-24T05:10:56.153Z,15.60
2017-07-24T05:11:53.417Z,15.59
2017-07-24T05:12:50.746Z,15.58
2017-07-24T05:13:48.036Z,15.58
2017-07-24T05:14:45.321Z,15.58
2017-07-24T05:15:42.580Z,15.58
2017-07-24T05:16:39.888Z,15.57
2017-07-24T05:17:37.132Z,15.58
2017-07-24T05:18:34.426Z,15.56
2017-07-24T05:19:31.666Z,15.56
2017-07-24T05:20:28.965Z,15.56
2017-07-24T05:21:26.233Z,15.57
2017-07-24T05:22:23.526Z,15.54
2017-07-24T05:23:20.768Z,15.54
2017-07-24T05:24:18.052Z,15.55
2017-07-24T05:25:15.324Z,15.55
2017-07-24T05:26:12.640Z,15.53
2017-07-24T05:27:09.897Z,15.53
2017-07-24T05:28:07.268Z,15.54
2017-07-24T05:29:04.525Z,15.53
2017-07-24T05:30:01.803Z,15.53
2017-07-24T05:30:59.080Z,15.52
2017-07-24T05:31:56.350Z,15.52
2017-07-24T05:32:53.608Z,15.51
2017-07-24T05:33:50.913Z,15.52
2017-07-24T05:34:48.153Z,15.52
2017-07-24T05:35:45.494Z,15.52
2017-07-24T05:36:42.738Z,15.51
2017-07-24T05:37:40.009Z,15.50
2017-07-24T05:38:37.269Z,15.50
2017-07-24T05:39:34.562Z,15.49
2017-07-24T05:40:31.837Z,15.50
2017-07-24T05:41:29.165Z,15.49
2017-07-24T05:42:26.648Z,15.49
2017-07-24T05:43:24.232Z,15.48
2017-07-24T05:44:21.525Z,15.48
2017-07-24T05:45:18.834Z,15.48
2017-07-24T05:46:16.092Z,15.48
2017-07-24T05:47:13.381Z,15.48
2017-07-24T05:48:10.660Z,15.46
2017-07-24T05:49:07.937Z,15.47
2017-07-24T05:50:05.216Z,15.47
2017-07-24T05:51:02.504Z,15.46
2017-07-24T05:51:59.814Z,15.46
2017-07-24T05:52:57.103Z,15.47
2017-07-24T05:53:54.452Z,15.45
2017-07-24T05:54:51.740Z,15.45
2017-07-24T05:55:48.991Z,15.45
2017-07-24T05:56:46.292Z,15.45
2017-07-24T05:57:43.619Z,15.44
2017-07-24T05:58:40.925Z,15.45
2017-07-24T05:59:38.217Z,15.43
2017-07-24T06:00:36.852Z,15.43
2017-07-24T06:01:34.144Z,15.43
2017-07-24T06:02:31.433Z,15.43
2017-07-24T06:03:28.699Z,15.40
2017-07-24T06:04:25.965Z,15.41
2017-07-24T06:05:23.244Z,15.41
2017-07-24T06:06:20.524Z,15.41
2017-07-24T06:07:17.850Z,15.41
2017-07-24T06:08:15.146Z,15.42
2017-07-24T06:09:12.417Z,15.39
2017-07-24T06:10:09.738Z,15.40
2017-07-24T06:11:07.049Z,15.39
2017-07-24T06:12:04.425Z,15.39
2017-07-24T06:13:01.712Z,15.40
2017-07-24T06:13:59.009Z,15.41
2017-07-24T06:14:56.267Z,15.39
2017-07-24T06:15:53.529Z,15.38
2017-07-24T06:16:50.811Z,15.39
2017-07-24T06:17:48.110Z,15.38
2017-07-24T06:18:45.350Z,15.38
2017-07-24T06:19:42.692Z,15.37
2017-07-24T06:20:39.941Z,15.38
2017-07-24T06:21:37.219Z,15.38
2017-07-24T06:22:34.493Z,15.38
2017-07-24T06:23:31.767Z,15.37
2017-07-24T06:24:29.036Z,15.38
2017-07-24T06:25:26.318Z,15.37
2017-07-24T06:26:23.577Z,15.36
2017-07-24T06:27:20.880Z,15.36
2017-07-24T06:28:18.137Z,15.37
2017-07-24T06:29:15.412Z,15.37
2017-07-24T06:30:12.668Z,15.37
2017-07-24T06:31:09.976Z,15.36
2017-07-24T06:32:07.254Z,15.36
2017-07-24T06:33:04.553Z,15.35
2017-07-24T06:34:01.802Z,15.36
2017-07-24T06:34:59.133Z,15.36
2017-07-24T06:35:56.375Z,15.35
2017-07-24T06:36:53.649Z,15.36
2017-07-24T06:37:50.928Z,15.36
2017-07-24T06:38:48.277Z,15.35
2017-07-24T06:39:45.616Z,15.36
2017-07-24T06:40:42.899Z,15.35
2017-07-24T06:41:40.162Z,15.35
2017-07-24T06:42:37.451Z,15.35
2017-07-24T06:43:34.716Z,15.34
2017-07-24T06:44:31.977Z,15.36
2017-07-24T06:45:29.233Z,15.36
2017-07-24T06:46:26.545Z,15.35
2017-07-24T06:47:23.819Z,15.36
2017-07-24T06:48:21.171Z,15.35
2017-07-24T06:49:18.436Z,15.36
2017-07-24T06:50:15.716Z,15.36
2017-07-24T06:51:12.967Z,15.36
2017-07-24T06:52:10.227Z,15.36
2017-07-24T06:53:07.470Z,15.36
2017-07-24T06:54:04.788Z,15.35
2017-07-24T06:55:02.033Z,15.35
2017-07-24T06:55:59.332Z,15.36
2017-07-24T06:56:56.588Z,15.36
2017-07-24T06:57:53.894Z,15.37
2017-07-24T06:58:51.193Z,15.36
2017-07-24T06:59:48.479Z,15.36
2017-07-24T07:00:45.724Z,15.37
2017-07-24T07:01:42.989Z,15.36
2017-07-24T07:02:40.261Z,15.36
2017-07-24T07:03:37.640Z,15.37
2017-07-24T07:04:34.917Z,15.36
2017-07-24T07:05:32.190Z,15.38
2017-07-24T07:06:29.444Z,15.36
2017-07-24T07:07:26.742Z,15.37
2017-07-24T07:08:24.089Z,15.37
2017-07-24T07:09:21.500Z,15.38
2017-07-24T07:10:18.743Z,15.37
2017-07-24T07:11:16.020Z,15.37
2017-07-24T07:12:13.297Z,15.38
2017-07-24T07:13:10.568Z,15.37
2017-07-24T07:14:07.884Z,15.37
2017-07-24T07:15:05.172Z,15.37
2017-07-24T07:16:02.437Z,15.37
2017-07-24T07:16:59.730Z,15.37
2017-07-24T07:17:56.990Z,15.39
2017-07-24T07:18:54.300Z,15.38
2017-07-24T07:19:51.577Z,15.38
2017-07-24T07:20:48.868Z,15.38
2017-07-24T07:21:46.112Z,15.39
2017-07-24T07:22:43.412Z,15.37
2017-07-24T07:23:40.661Z,15.38
2017-07-24T07:24:37.956Z,15.38
2017-07-24T07:25:35.216Z,15.38
2017-07-24T07:26:32.536Z,15.38
2017-07-24T07:27:29.807Z,15.37
2017-07-24T07:28:27.110Z,15.38
2017-07-24T07:29:24.392Z,15.37
2017-07-24T07:30:21.684Z,15.38
2017-07-24T07:31:18.909Z,15.38
2017-07-24T07:32:16.201Z,15.38
2017-07-24T07:33:13.467Z,15.38
2017-07-24T07:34:10.765Z,15.37
2017-07-24T07:35:08.049Z,15.36
2017-07-24T07:36:05.326Z,15.37
2017-07-24T07:37:02.560Z,15.38
2017-07-24T07:37:59.825Z,15.39
2017-07-24T07:38:57.085Z,15.38
2017-07-24T07:39:54.398Z,15.38
2017-07-24T07:40:51.658Z,15.38
2017-07-24T07:41:48.928Z,15.39
2017-07-24T07:42:46.174Z,15.39
2017-07-24T07:43:43.476Z,15.39
2017-07-24T07:44:40.758Z,15.39
2017-07-24T07:45:43.093Z,15.39
2017-07-24T07:46:45.407Z,15.39
2017-07-24T07:47:43.024Z,15.40
2017-07-24T07:48:40.289Z,15.40
2017-07-24T07:49:41.710Z,15.41
2017-07-24T07:50:39.183Z,15.42
2017-07-24T07:51:36.528Z,15.42
2017-07-24T07:52:34.085Z,15.42
2017-07-24T07:53:33.114Z,15.44
2017-07-24T07:54:30.865Z,15.43
2017-07-24T07:55:28.176Z,15.45
2017-07-24T07:56:25.608Z,15.46
2017-07-24T07:57:22.904Z,15.47
2017-07-24T07:58:20.321Z,15.46
2017-07-24T07:59:17.596Z,15.48
2017-07-24T08:00:14.938Z,15.49
2017-07-24T08:01:12.222Z,15.50
2017-07-24T08:02:09.523Z,15.49
2017-07-24T08:03:06.805Z,15.51
2017-07-24T08:04:04.158Z,15.50
2017-07-24T08:05:01.540Z,15.52
2017-07-24T08:05:58.836Z,15.54
2017-07-24T08:06:56.152Z,15.54
2017-07-24T08:07:53.479Z,15.54
2017-07-24T08:08:50.741Z,15.56
2017-07-24T08:09:48.037Z,15.56
2017-07-24T08:10:45.376Z,15.58
2017-07-24T08:11:42.674Z,15.58
2017-07-24T08:12:42.014Z,15.59
2017-07-24T08:13:39.400Z,15.59
2017-07-24T08:14:36.656Z,15.60
2017-07-24T08:15:34.081Z,15.61
2017-07-24T08:16:31.352Z,15.62
2017-07-24T08:17:28.756Z,15.62
2017-07-24T08:18:28.129Z,15.62
2017-07-24T08:19:25.409Z,15.64
2017-07-24T08:20:22.680Z,15.65
2017-07-24T08:21:19.981Z,15.66
2017-07-24T08:22:17.265Z,15.67
2017-07-24T08:23:14.567Z,15.68
2017-07-24T08:24:11.857Z,15.68
2017-07-24T08:25:09.193Z,15.69
2017-07-24T08:26:06.468Z,15.70
2017-07-24T08:27:03.744Z,15.71
2017-07-24T08:28:00.998Z,15.71
2017-07-24T08:28:58.389Z,15.72
2017-07-24T08:29:55.764Z,15.74
2017-07-24T08:30:53.148Z,15.75
2017-07-24T08:31:50.467Z,15.75
2017-07-24T08:32:47.787Z,15.76
2017-07-24T08:33:45.072Z,15.77
2017-07-24T08:34:42.487Z,15.77
2017-07-24T08:35:39.758Z,15.78
2017-07-24T08:36:37.082Z,15.79
2017-07-24T08:37:34.333Z,15.79
2017-07-24T08:38:31.636Z,15.80
2017-07-24T08:39:28.924Z,15.81
2017-07-24T08:40:26.184Z,15.81
2017-07-24T08:41:23.520Z,15.83
2017-07-24T08:42:20.797Z,15.84
2017-07-24T08:43:18.061Z,15.85
2017-07-24T08:44:15.344Z,15.85
2017-07-24T08:45:12.593Z,15.87
2017-07-24T08:46:09.886Z,15.88
2017-07-24T08:47:07.169Z,15.88
2017-07-24T08:48:04.436Z,15.89
2017-07-24T08:49:01.676Z,15.91
2017-07-24T08:49:58.948Z,15.91
2017-07-24T08:50:56.211Z,15.90
2017-07-24T08:51:54.333Z,15.92
2017-07-24T08:52:51.572Z,15.93
2017-07-24T08:53:48.817Z,15.93
2017-07-24T08:54:46.041Z,15.94
2017-07-24T08:55:43.289Z,15.95
2017-07-24T08:56:40.557Z,15.96
2017-07-24T08:57:37.843Z,15.97
2017-07-24T08:58:35.084Z,15.98
2017-07-24T08:59:32.352Z,15.99
2017-07-24T09:00:29.604Z,15.99
2017-07-24T09:01:26.942Z,15.99
2017-07-24T09:02:24.362Z,16.00
2017-07-24T09:03:21.757Z,16.02
2017-07-24T09:04:19.042Z,16.02
2017-07-24T09:05:16.301Z,16.03
2017-07-24T09:06:13.861Z,16.05
2017-07-24T09:07:11.249Z,16.07
2017-07-24T09:08:08.752Z,16.06
2017-07-24T09:09:06.188Z,16.07
2017-07-24T09:10:03.706Z,16.08
2017-07-24T09:11:01.119Z,16.10
2017-07-24T09:11:58.426Z,16.11
2017-07-24T09:12:55.779Z,16.10
2017-07-24T09:13:53.054Z,16.11
2017-07-24T09:14:50.321Z,16.12
2017-07-24T09:15:47.596Z,16.11
2017-07-24T09:16:44.980Z,16.12
2017-07-24T09:17:42.319Z,16.12
2017-07-24T09:18:39.672Z,16.13
2017-07-24T09:19:36.921Z,16.14
2017-07-24T09:20:34.210Z,16.12
2017-07-24T09:21:31.598Z,16.14
2017-07-24T09:22:28.956Z,16.14
2017-07-24T09:23:26.254Z,16.14
2017-07-24T09:24:23.578Z,16.16
2017-07-24T09:25:20.889Z,16.13
2017-07-24T09:26:18.233Z,16.14
2017-07-24T09:27:15.603Z,16.13
2017-07-24T09:28:12.926Z,16.14
2017-07-24T09:29:10.246Z,16.14
2017-07-24T09:30:07.496Z,16.15
2017-07-24T09:31:04.766Z,16.14
2017-07-24T09:32:02.053Z,16.15
2017-07-24T09:32:59.301Z,16.16
2017-07-24T09:33:56.604Z,16.15
2017-07-24T09:34:53.958Z,16.15
2017-07-24T09:35:51.315Z,16.17
2017-07-24T09:36:48.601Z,16.15
2017-07-24T09:37:45.956Z,16.16
2017-07-24T09:38:43.229Z,16.15
2017-07-24T09:39:40.508Z,16.16
2017-07-24T09:40:37.817Z,16.17
2017-07-24T09:41:35.129Z,16.17
2017-07-24T09:42:32.440Z,16.17
2017-07-24T09:43:29.749Z,16.17
2017-07-24T09:44:27.093Z,16.16
2017-07-24T09:45:24.463Z,16.17
2017-07-24T09:46:21.831Z,16.16
2017-07-24T09:47:19.342Z,16.17
2017-07-24T09:48:16.673Z,16.18
2017-07-24T09:49:13.990Z,16.17
2017-07-24T09:50:11.265Z,16.17
2017-07-24T09:51:08.573Z,16.18
2017-07-24T09:52:05.862Z,16.16
2017-07-24T09:53:03.206Z,16.17
2017-07-24T09:54:00.488Z,16.18
2017-07-24T09:54:57.913Z,16.18
2017-07-24T09:55:55.318Z,16.19
2017-07-24T09:56:52.602Z,16.18
2017-07-24T09:57:49.896Z,16.20
2017-07-24T09:58:47.239Z,16.20
2017-07-24T09:59:44.553Z,16.19
2017-07-24T10:00:41.941Z,16.19
2017-07-24T10:01:39.366Z,16.20
2017-07-24T10:02:36.723Z,16.21
2017-07-24T10:03:34.194Z,16.21
2017-07-24T10:04:31.643Z,16.20
2017-07-24T10:05:29.123Z,16.21
2017-07-24T10:06:26.668Z,16.21
2017-07-24T10:07:23.920Z,16.23
2017-07-24T10:08:21.288Z,16.22
2017-07-24T10:09:18.625Z,16.23
2017-07-24T10:10:15.960Z,16.23
2017-07-24T10:11:13.220Z,16.24
2017-07-24T10:12:10.573Z,16.25
2017-07-24T10:13:08.528Z,16.26
2017-07-24T10:14:06.445Z,16.26
2017-07-24T10:15:03.696Z,16.26
2017-07-24T10:16:00.981Z,16.27
2017-07-24T10:16:58.218Z,16.27
2017-07-24T10:17:55.502Z,16.27
2017-07-24T10:18:52.729Z,16.28
2017-07-24T10:19:50.018Z,16.27
2017-07-24T10:20:47.245Z,16.28
2017-07-24T10:21:44.530Z,16.29
2017-07-24T10:22:41.773Z,16.30
2017-07-24T10:23:39.021Z,16.31
2017-07-24T10:24:36.248Z,16.29
2017-07-24T10:25:33.513Z,16.31
2017-07-24T10:26:30.741Z,16.31
2017-07-24T10:27:27.999Z,16.31
2017-07-24T10:28:25.213Z,16.33
2017-07-24T10:29:22.511Z,16.33
2017-07-24T10:30:19.744Z,16.35
2017-07-24T10:31:17.028Z,16.35
2017-07-24T10:32:14.276Z,16.35
2017-07-24T10:33:11.554Z,16.37
2017-07-24T10:34:08.794Z,16.37
2017-07-24T10:35:06.092Z,16.37
2017-07-24T10:36:03.379Z,16.38
2017-07-24T10:37:00.683Z,16.38
2017-07-24T10:37:57.917Z,16.39
2017-07-24T10:38:55.169Z,16.40
2017-07-24T10:39:52.426Z,16.41
2017-07-24T10:40:49.726Z,16.41
2017-07-24T10:41:46.961Z,16.42
2017-07-24T10:42:44.228Z,16.42
2017-07-24T10:43:41.472Z,16.43
2017-07-24T10:44:38.761Z,16.45
2017-07-24T10:45:36.037Z,16.45
2017-07-24T10:46:33.304Z,16.45
2017-07-24T10:47:30.526Z,16.46
2017-07-24T10:48:27.820Z,16.48
2017-07-24T10:49:25.060Z,16.49
2017-07-24T10:50:22.344Z,16.48
2017-07-24T10:51:19.581Z,16.50
2017-07-24T10:52:16.840Z,16.51
2017-07-24T10:53:14.092Z,16.50
2017-07-24T10:54:11.383Z,16.51
2017-07-24T10:55:08.798Z,16.53
2017-07-24T10:56:06.049Z,16.52
2017-07-24T10:57:03.309Z,16.53
2017-07-24T10:58:00.588Z,16.54
2017-07-24T10:58:57.872Z,16.54
2017-07-24T10:59:55.138Z,16.55
2017-07-24T11:00:52.505Z,16.56
2017-07-24T11:01:49.908Z,16.57
2017-07-24T11:02:47.132Z,16.59
2017-07-24T11:03:44.412Z,16.58
2017-07-24T11:04:41.690Z,16.60
2017-07-24T11:05:38.981Z,16.59
2017-07-24T11:06:36.206Z,16.61
2017-07-24T11:07:33.507Z,16.62
2017-07-24T11:08:30.785Z,16.63
2017-07-24T11:09:28.060Z,16.63
2017-07-24T11:10:25.321Z,16.65
2017-07-24T11:11:22.658Z,16.65
2017-07-24T11:12:19.932Z,16.67
2017-07-24T11:13:17.280Z,16.68
2017-07-24T11:14:14.673Z,16.68
2017-07-24T11:15:11.956Z,16.67
2017-07-24T11:16:09.294Z,16.69
2017-07-24T11:17:06.567Z,16.70
2017-07-24T11:18:03.818Z,16.70
2017-07-24T11:19:01.083Z,16.73
2017-07-24T11:19:58.331Z,16.71
2017-07-24T11:20:55.670Z,16.73
2017-07-24T11:21:52.940Z,16.73
2017-07-24T11:22:50.202Z,16.74
2017-07-24T11:23:47.495Z,16.74
2017-07-24T11:24:44.791Z,16.76
2017-07-24T11:25:42.093Z,16.75
2017-07-24T11:26:39.418Z,16.76
2017-07-24T11:27:36.701Z,16.78
2017-07-24T11:28:34.144Z,16.78
2017-07-24T11:29:31.424Z,16.79
2017-07-24T11:30:28.705Z,16.78
2017-07-24T11:31:26.039Z,16.80
2017-07-24T11:32:23.320Z,16.81
2017-07-24T11:33:20.601Z,16.81
2017-07-24T11:34:17.862Z,16.82
2017-07-24T11:35:15.180Z,16.80
2017-07-24T11:36:12.449Z,16.82
2017-07-24T11:37:09.732Z,16.83
2017-07-24T11:38:07.001Z,16.83
2017-07-24T11:39:04.229Z,16.84
2017-07-24T11:40:01.484Z,16.84
2017-07-24T11:40:58.724Z,16.83
2017-07-24T11:41:56.008Z,16.84
2017-07-24T11:42:53.248Z,16.85
2017-07-24T11:43:51.853Z,16.85
2017-07-24T11:44:49.091Z,16.86
2017-07-24T11:45:46.424Z,16.85
2017-07-24T11:46:43.722Z,16.85
2017-07-24T11:47:41.016Z,16.85
2017-07-24T11:48:38.288Z,16.85
2017-07-24T11:49:35.558Z,16.84
2017-07-24T11:50:32.816Z,16.85
2017-07-24T11:51:30.065Z,16.83
2017-07-24T11:52:27.310Z,16.84
2017-07-24T11:53:24.569Z,16.84
2017-07-24T11:54:21.797Z,16.83
2017-07-24T11:55:19.049Z,16.83
2017-07-24T11:56:16.278Z,16.83
2017-07-24T11:57:13.653Z,16.83
2017-07-24T11:58:10.916Z,16.83
2017-07-24T11:59:08.177Z,16.82
2017-07-24T12:00:05.414Z,16.82
2017-07-24T12:01:02.659Z,16.82
2017-07-24T12:01:59.940Z,16.81
2017-07-24T12:02:57.252Z,16.82
2017-07-24T12:03:54.504Z,16.80
2017-07-24T12:04:51.873Z,16.81
2017-07-24T12:05:49.119Z,16.81
2017-07-24T12:06:46.400Z,16.79
2017-07-24T12:07:43.681Z,16.80
2017-07-24T12:08:40.935Z,16.80
2017-07-24T12:09:38.228Z,16.79
2017-07-24T12:10:35.482Z,16.79
2017-07-24T12:11:32.696Z,16.78
2017-07-24T12:12:29.978Z,16.78
2017-07-24T12:13:27.237Z,16.78
2017-07-24T12:14:24.489Z,16.78
2017-07-24T12:15:21.724Z,16.78
2017-07-24T12:16:19.003Z,16.78
2017-07-24T12:17:16.224Z,16.77
2017-07-24T12:18:13.501Z,16.78